createdAt,value
2023-04-01T00:03:24.892Z,53.06
2023-04-01T00:08:31.314Z,52.69
2023-04-01T00:13:35.617Z,52.88
2023-04-01T00:18:39.483Z,52.66
2023-04-01T00:23:42.147Z,52.25
2023-04-01T00:28:49.743Z,52.21
2023-04-01T00:34:00.580Z,52.39
2023-04-01T00:39:06.659Z,51.88
2023-04-01T00:44:29.630Z,51.98
2023-04-01T00:49:38.329Z,52.52
2023-04-01T00:54:43.476Z,53.18
2023-04-01T00:59:47.749Z,53.16
2023-04-01T01:04:52.579Z,53.64
2023-04-01T01:10:21.630Z,53.28
2023-04-01T01:15:32.880Z,54.09
2023-04-01T01:20:50.570Z,54.47
2023-04-01T01:26:32.583Z,55.13
2023-04-01T01:31:42.717Z,55.73
2023-04-01T01:36:47.071Z,55.62
2023-04-01T01:41:51.679Z,55.78
2023-04-01T01:46:54.426Z,55.85
2023-04-01T01:51:57.211Z,56.22
2023-04-01T01:57:10.963Z,56.62
2023-04-01T02:02:17.298Z,56.91
2023-04-01T02:07:23.591Z,57.08
2023-04-01T02:12:26.363Z,56.68
2023-04-01T02:17:32.492Z,56.56
2023-04-01T02:22:42.874Z,56.90
2023-04-01T02:27:46.280Z,56.78
2023-04-01T02:32:48.900Z,56.32
2023-04-01T02:37:53.682Z,56.85
2023-04-01T02:42:56.212Z,57.13
2023-04-01T02:47:58.442Z,57.39
2023-04-01T02:53:04.070Z,56.96
2023-04-01T02:58:06.272Z,57.20
2023-04-01T03:03:10.936Z,57.29
2023-04-01T03:08:13.808Z,57.05
2023-04-01T03:13:16.363Z,56.49
2023-04-01T03:18:22.328Z,56.74
2023-04-01T03:23:25.444Z,56.32
2023-04-01T03:28:27.947Z,56.53
2023-04-01T03:33:32.976Z,57.16
2023-04-01T03:38:37.872Z,57.15
2023-04-01T03:43:40.160Z,57.10
2023-04-01T03:48:42.801Z,57.09
2023-04-01T03:53:45.124Z,56.80
2023-04-01T03:58:47.640Z,57.29
2023-04-01T04:03:51.558Z,57.38
2023-04-01T04:08:54.386Z,57.75
2023-04-01T04:13:58.315Z,58.12
2023-04-01T04:19:01.547Z,58.35
2023-04-01T04:24:03.970Z,58.68
2023-04-01T04:29:25.812Z,58.92
2023-04-01T04:34:30.727Z,58.98
2023-04-01T04:39:34.132Z,58.86
2023-04-01T04:44:39.668Z,58.29
2023-04-01T04:49:47.245Z,57.50
2023-04-01T04:54:50.080Z,57.63
2023-04-01T04:59:52.917Z,57.30
2023-04-01T05:05:05.423Z,56.90
2023-04-01T05:10:10.382Z,54.53
2023-04-01T05:15:12.763Z,54.12
2023-04-01T05:20:16.986Z,54.46
2023-04-01T05:25:19.708Z,54.48
2023-04-01T05:30:22.477Z,55.35
2023-04-01T05:35:40.450Z,56.03
2023-04-01T05:40:43.750Z,56.22
2023-04-01T05:45:46.874Z,56.60
2023-04-01T05:50:51.085Z,56.60
2023-04-01T05:55:54.683Z,56.73
2023-04-01T06:01:11.247Z,56.86
2023-04-01T06:06:27.888Z,56.73
2023-04-01T06:11:48.212Z,56.18
2023-04-01T06:17:11.860Z,55.93
2023-04-01T06:22:14.015Z,55.49
2023-04-01T06:27:43.733Z,54.97
2023-04-01T06:33:02.086Z,54.35
2023-04-01T06:38:38.010Z,54.23
2023-04-01T06:44:19.988Z,55.91
2023-04-01T06:49:51.004Z,55.15
2023-04-01T06:55:28.497Z,55.53
2023-04-01T07:01:02.353Z,55.76
2023-04-01T07:06:07.060Z,55.32
2023-04-01T07:11:27.783Z,54.99
2023-04-01T07:16:54.754Z,55.74
2023-04-01T07:22:04.822Z,55.72
2023-04-01T07:27:28.221Z,55.71
2023-04-01T07:32:37.479Z,55.44
2023-04-01T07:38:13.066Z,55.49
2023-04-01T07:43:43.310Z,53.63
2023-04-01T07:49:12.318Z,54.52
2023-04-01T07:54:34.868Z,54.05
2023-04-01T08:00:07.695Z,53.96
2023-04-01T08:05:40.938Z,53.89
2023-04-01T08:11:13.823Z,53.24
2023-04-01T08:16:51.548Z,53.53
2023-04-01T08:22:10.146Z,52.88
2023-04-01T08:27:19.724Z,52.67
2023-04-01T08:32:44.343Z,51.62
2023-04-01T08:37:51.966Z,51.52
2023-04-01T08:43:38.270Z,50.33
2023-04-01T08:49:06.242Z,50.02
2023-04-01T08:54:18.466Z,48.00
2023-04-01T09:00:12.476Z,46.30
2023-04-01T09:05:50.918Z,45.99
2023-04-01T09:11:28.404Z,46.24
2023-04-01T09:17:21.110Z,46.00
2023-04-01T09:22:26.064Z,45.91
2023-04-01T09:27:34.033Z,45.52
2023-04-01T09:32:52.243Z,44.78
2023-04-01T09:38:13.240Z,45.09
2023-04-01T09:43:24.011Z,45.49
2023-04-01T09:56:14.268Z,45.14
2023-04-01T10:01:58.288Z,45.08
2023-04-01T10:07:31.425Z,44.35
2023-04-01T10:13:01.534Z,43.25
2023-04-01T10:18:22.903Z,43.72
2023-04-01T10:23:50.620Z,43.60
2023-04-01T10:29:40.258Z,44.07
2023-04-01T10:35:13.056Z,44.74
2023-04-01T10:40:41.653Z,44.76
2023-04-01T10:46:56.233Z,44.73
2023-04-01T10:52:31.835Z,44.32
2023-04-01T10:57:58.609Z,43.89
2023-04-01T11:04:08.048Z,44.22
2023-04-01T11:09:32.979Z,43.89
2023-04-01T11:15:00.569Z,44.26
2023-04-01T11:20:37.569Z,44.51
2023-04-01T11:25:55.031Z,44.63
2023-04-01T11:31:47.627Z,43.30
2023-04-01T11:36:58.535Z,44.13
2023-04-01T11:42:50.863Z,44.76
2023-04-01T11:48:26.441Z,43.19
2023-04-01T11:53:37.961Z,44.40
2023-04-01T11:59:11.441Z,45.18
2023-04-01T12:04:21.213Z,45.29
2023-04-01T12:09:53.460Z,45.00
2023-04-01T12:15:06.363Z,43.47
2023-04-01T12:20:32.262Z,42.43
2023-04-01T12:25:47.910Z,43.33
2023-04-01T12:31:01.403Z,42.50
2023-04-01T12:36:23.676Z,43.47
2023-04-01T12:41:28.608Z,44.39
2023-04-01T12:46:55.498Z,44.39
2023-04-01T12:52:25.475Z,44.33
2023-04-01T12:57:54.780Z,43.90
2023-04-01T13:03:41.184Z,44.14
2023-04-01T13:09:09.088Z,45.76
2023-04-01T13:14:31.892Z,44.69
2023-04-01T13:20:06.381Z,45.94
2023-04-01T13:25:36.532Z,44.03
2023-04-01T13:30:57.529Z,44.59
2023-04-01T13:36:12.854Z,44.69
2023-04-01T13:41:46.284Z,44.47
2023-04-01T13:47:03.068Z,44.95
2023-04-01T13:52:26.540Z,45.68
2023-04-01T13:57:57.314Z,44.94
2023-04-01T14:03:20.279Z,44.11
2023-04-01T14:08:51.468Z,45.46
2023-04-01T14:14:31.799Z,44.56
2023-04-01T14:19:50.952Z,44.47
2023-04-01T14:25:20.226Z,43.56
2023-04-01T14:30:49.017Z,42.13
2023-04-01T14:35:55.402Z,42.87
2023-04-01T14:41:02.496Z,44.00
2023-04-01T14:46:29.834Z,44.25
2023-04-01T14:51:41.325Z,44.19
2023-04-01T14:56:54.746Z,43.92
2023-04-01T15:02:34.428Z,42.86
2023-04-01T15:07:47.519Z,42.30
2023-04-01T15:12:54.732Z,42.35
2023-04-01T15:18:09.297Z,42.51
2023-04-01T15:23:14.161Z,41.69
2023-04-01T15:28:18.834Z,42.43
2023-04-01T15:33:23.676Z,41.29
2023-04-01T15:38:42.308Z,41.10
2023-04-01T15:43:50.379Z,40.96
2023-04-01T15:49:15.067Z,40.95
2023-04-01T15:54:48.669Z,40.53
2023-04-01T16:00:12.296Z,40.82
2023-04-01T16:05:46.763Z,40.74
2023-04-01T16:11:07.303Z,40.77
2023-04-01T16:16:27.907Z,40.78
2023-04-01T16:21:40.274Z,41.13
2023-04-01T16:26:54.176Z,41.23
2023-04-01T16:32:24.101Z,39.73
2023-04-01T16:37:54.546Z,39.62
2023-04-01T16:43:30.200Z,40.04
2023-04-01T16:48:51.414Z,40.59
2023-04-01T16:54:26.197Z,41.11
2023-04-01T16:59:51.562Z,41.43
2023-04-01T17:05:10.757Z,42.23
2023-04-01T17:11:01.420Z,42.47
2023-04-01T17:16:26.750Z,42.61
2023-04-01T17:21:53.562Z,43.48
2023-04-01T17:27:24.732Z,42.76
2023-04-01T17:33:18.734Z,42.75
2023-04-01T17:38:58.121Z,43.08
2023-04-01T17:44:22.186Z,42.96
2023-04-01T17:49:52.009Z,43.08
2023-04-01T17:55:23.321Z,42.77
2023-04-01T18:01:02.736Z,42.50
2023-04-01T18:06:19.248Z,42.66
2023-04-01T18:11:46.934Z,43.54
2023-04-01T18:16:52.256Z,43.48
2023-04-01T18:22:19.542Z,44.32
2023-04-01T18:27:40.138Z,45.19
2023-04-01T18:32:57.042Z,45.69
2023-04-01T18:38:08.067Z,46.17
2023-04-01T18:43:39.053Z,46.58
2023-04-01T18:48:48.659Z,47.53
2023-04-01T18:54:00.631Z,48.50
2023-04-01T18:59:11.398Z,47.32
2023-04-01T19:04:43.806Z,47.85
2023-04-01T19:09:49.654Z,47.70
2023-04-01T19:15:00.936Z,48.65
2023-04-01T19:20:19.554Z,49.02
2023-04-01T19:25:34.737Z,49.25
2023-04-01T19:30:47.267Z,49.45
2023-04-01T19:36:09.520Z,49.45
2023-04-01T19:41:28.260Z,49.42
2023-04-01T19:46:36.642Z,49.76
2023-04-01T19:51:57.397Z,50.00
2023-04-01T19:57:03.357Z,50.10
2023-04-01T20:02:35.911Z,50.87
2023-04-01T20:07:54.601Z,51.39
2023-04-01T20:13:02.999Z,52.54
2023-04-01T20:18:48.534Z,52.15
2023-04-01T20:24:28.063Z,52.96
2023-04-01T20:30:04.649Z,52.95
2023-04-01T20:35:07.262Z,52.75
2023-04-01T20:40:27.623Z,52.72
2023-04-01T20:45:36.072Z,52.82
2023-04-01T20:50:47.432Z,52.78
2023-04-01T20:56:14.536Z,52.46
2023-04-01T21:01:35.027Z,52.01
2023-04-01T21:06:37.233Z,51.49
2023-04-01T21:12:06.095Z,51.71
2023-04-01T21:17:12.799Z,50.07
2023-04-01T21:22:18.233Z,49.93
2023-04-01T21:27:53.595Z,49.87
2023-04-01T21:33:26.840Z,48.52
2023-04-01T21:38:50.629Z,46.00
2023-04-01T21:44:25.784Z,43.80
2023-04-01T21:49:40.822Z,43.89
2023-04-01T21:54:49.038Z,44.03
2023-04-01T22:00:00.664Z,42.34
2023-04-01T22:05:34.790Z,40.85
2023-04-01T22:11:13.436Z,41.27
2023-04-01T22:16:30.880Z,40.81
2023-04-01T22:21:40.894Z,42.74
2023-04-01T22:27:08.594Z,44.87
2023-04-01T22:32:30.529Z,45.77
2023-04-01T22:37:42.287Z,46.77
2023-04-01T22:42:46.900Z,47.25
2023-04-01T22:48:12.866Z,48.07
2023-04-01T22:53:41.759Z,48.43
2023-04-01T22:58:52.694Z,48.29
2023-04-01T23:03:54.861Z,48.64
2023-04-01T23:09:13.006Z,48.71
2023-04-01T23:14:26.599Z,48.91
2023-04-01T23:20:11.083Z,48.20
2023-04-01T23:25:45.092Z,48.39
2023-04-01T23:30:51.973Z,49.14
2023-04-01T23:36:08.618Z,49.07
2023-04-01T23:41:34.276Z,49.53
2023-04-01T23:46:40.081Z,49.84
2023-04-01T23:52:01.290Z,49.87
2023-04-01T23:57:12.295Z,48.54
